Belle Chasse — WDG2912 — position and weather

sailwx.info

Track history (hours):
 
Tides and Currents Weather Stations Pressure Air Temp Water Temp Dewpoint Dewpoint Depression Visibility Wind Speed Wind Dir Waves Ship Positions

Belle Chasse

Owner: Higman Barge Lines, Inc, Orange, TX. More information available from US FCC via Universal Licensing System and Coast Guard Vessel Documentation Center.

Last reported at 2014-Sep-26 02:32 UTC. Time now 2014-Oct-22 01:35 UTC.
Position N 29°15' W 095°01'.
Warning: this ship's position is 25 days out of date.

Length 26 m; draft 3 m.

Type: Towing. MMSI: 367520550.

Date/timePositionNaut miles runAvg speedWind from/ knotsBaromVisibWave heightAir tempDewpointWater temp
2014-Sep-26 02:32N 29°15' W 095°01'12 3.7
2014-Sep-25 23:20N 29°22' W 094°50'4 0.1
2014-Sep-24 14:24N 29°24' W 094°45'0 0.0
2014-Sep-24 13:30N 29°24' W 094°45'0 0.0
2014-Sep-24 12:33N 29°24' W 094°45'2 0.1
2014-Sep-23 18:27N 29°25' W 094°44'2 1.0
2014-Sep-23 16:18N 29°24' W 094°45'12 0.9
2014-Sep-23 02:33N 29°17' W 094°57'12 3.0
2014-Sep-22 22:28N 29°24' W 094°46'1 0.3
2014-Sep-22 20:27N 29°24' W 094°45'1 0.3
2014-Sep-22 18:29N 29°24' W 094°46'0 0.0
2014-Sep-22 17:29N 29°24' W 094°46'0 0.0
2014-Sep-22 16:29N 29°24' W 094°46'0 0.0
2014-Sep-22 15:32N 29°24' W 094°46'0 0.0
2014-Sep-22 14:32N 29°24' W 094°46'0 0.0
2014-Sep-22 13:32N 29°24' W 094°46'0 0.0
2014-Sep-22 12:20N 29°24' W 094°46'0 0.0
2014-Sep-21 14:20N 29°24' W 094°45'0 0.0
2014-Sep-21 13:32N 29°24' W 094°45'0 0.0
2014-Sep-21 12:26N 29°24' W 094°45'1 0.0
2014-Sep-19 21:19N 29°23' W 094°46'6 5.6
2014-Sep-19 20:13N 29°19' W 094°52'4 5.4
2014-Sep-19 19:33N 29°17' W 094°55'11 2.0
2014-Sep-19 14:19N 29°24' W 094°45'3 0.4
2014-Sep-19 06:12N 29°22' W 094°48'4 5.5
2014-Sep-19 05:32N 29°23' W 094°52'2 1.7
2014-Sep-19 04:18N 29°22' W 094°54'0 0.0
2014-Sep-18 17:21N 29°22' W 094°54'1 1.7
2014-Sep-18 16:29N 29°23' W 094°53'1 0.0
2014-Sep-16 15:19N 29°23' W 094°52'  
Track history (hours):
 
Tides and Currents Weather Stations Pressure Air Temp Water Temp Dewpoint Dewpoint Depression Visibility Wind Speed Wind Dir Waves Ship Positions

Belle Chasse

Owner: Higman Barge Lines, Inc, Orange, TX. More information available from US FCC via Universal Licensing System and Coast Guard Vessel Documentation Center.

Last reported at 2014-Sep-26 02:32 UTC. Time now 2014-Oct-22 01:35 UTC.
Position N 29°15' W 095°01'.
Warning: this ship's position is 25 days out of date.

Length 26 m; draft 3 m.

Type: Towing. MMSI: 367520550.

Date/timePositionNaut miles runAvg speedWind from/ knotsBaromVisibWave heightAir tempDewpointWater temp
2014-Sep-26 02:32N 29°15' W 095°01'12 3.7
2014-Sep-25 23:20N 29°22' W 094°50'4 0.1
2014-Sep-24 14:24N 29°24' W 094°45'0 0.0
2014-Sep-24 13:30N 29°24' W 094°45'0 0.0
2014-Sep-24 12:33N 29°24' W 094°45'2 0.1
2014-Sep-23 18:27N 29°25' W 094°44'2 1.0
2014-Sep-23 16:18N 29°24' W 094°45'12 0.9
2014-Sep-23 02:33N 29°17' W 094°57'12 3.0
2014-Sep-22 22:28N 29°24' W 094°46'1 0.3
2014-Sep-22 20:27N 29°24' W 094°45'1 0.3
2014-Sep-22 18:29N 29°24' W 094°46'0 0.0
2014-Sep-22 17:29N 29°24' W 094°46'0 0.0
2014-Sep-22 16:29N 29°24' W 094°46'0 0.0
2014-Sep-22 15:32N 29°24' W 094°46'0 0.0
2014-Sep-22 14:32N 29°24' W 094°46'0 0.0
2014-Sep-22 13:32N 29°24' W 094°46'0 0.0
2014-Sep-22 12:20N 29°24' W 094°46'0 0.0
2014-Sep-21 14:20N 29°24' W 094°45'0 0.0
2014-Sep-21 13:32N 29°24' W 094°45'0 0.0
2014-Sep-21 12:26N 29°24' W 094°45'1 0.0
2014-Sep-19 21:19N 29°23' W 094°46'6 5.6
2014-Sep-19 20:13N 29°19' W 094°52'4 5.4
2014-Sep-19 19:33N 29°17' W 094°55'11 2.0
2014-Sep-19 14:19N 29°24' W 094°45'3 0.4
2014-Sep-19 06:12N 29°22' W 094°48'4 5.5
2014-Sep-19 05:32N 29°23' W 094°52'2 1.7
2014-Sep-19 04:18N 29°22' W 094°54'0 0.0
2014-Sep-18 17:21N 29°22' W 094°54'1 1.7
2014-Sep-18 16:29N 29°23' W 094°53'1 0.0
2014-Sep-16 15:19N 29°23' W 094°52'  

Dump ship's entire track history